Banbury, United Kingdom
Current Conditions -  °F | °C
As of 8:50 PM on Thursday 23 Oct 2014 (Local Time) from EGTK Reporting Station
Broken Clouds Broken Clouds  
Wind Chill: 57°   Ceiling: 900
Heat Index: 57°   Visibility: 6mi
Dew Point: 57°   Wind: 9mph
Humidity: 100%   Direction: 210°SSW
Pressure: 30"   Gusts: NA
Location:  52.06°N, 1.34°W
Report Text: EGTK 231950Z 21008KT 9999 FEW006 SCT008 BKN009 14/14 Q1016
Loading
Personal Weather Stations






























Interactive Weather Map New forecast layout! Learn more

10-Day Weather Forecast

Advertisements
Track Severe Weather on mobile